sensor_id;sensor_type;location;lat;lon;timestamp;pressure;altitude;pressure_sealevel;temperature;humidity
58955;BME280;45815;52.334;5.024;2023-02-12T00:01:01;103870.50;;;8.17;100.00
58955;BME280;45815;52.334;5.024;2023-02-12T00:03:26;103866.03;;;8.16;100.00
58955;BME280;45815;52.334;5.024;2023-02-12T00:05:51;103875.47;;;8.14;100.00
58955;BME280;45815;52.334;5.024;2023-02-12T00:08:17;103867.75;;;8.16;100.00
58955;BME280;45815;52.334;5.024;2023-02-12T00:10:42;103869.81;;;8.20;100.00
58955;BME280;45815;52.334;5.024;2023-02-12T00:13:11;103867.06;;;8.18;100.00
58955;BME280;45815;52.334;5.024;2023-02-12T00:15:38;103867.06;;;8.18;100.00
58955;BME280;45815;52.334;5.024;2023-02-12T00:18:04;103865.25;;;8.17;100.00
58955;BME280;45815;52.334;5.024;2023-02-12T00:20:29;103872.09;;;8.15;100.00
58955;BME280;45815;52.334;5.024;2023-02-12T00:22:55;103865.59;;;8.10;100.00
58955;BME280;45815;52.334;5.024;2023-02-12T00:25:20;103864.28;;;8.05;100.00
58955;BME280;45815;52.334;5.024;2023-02-12T00:27:46;103860.91;;;8.06;100.00
58955;BME280;45815;52.334;5.024;2023-02-12T00:30:11;103848.91;;;7.98;100.00
58955;BME280;45815;52.334;5.024;2023-02-12T00:32:37;103861.56;;;8.03;100.00
58955;BME280;45815;52.334;5.024;2023-02-12T00:35:02;103858.59;;;7.99;100.00
58955;BME280;45815;52.334;5.024;2023-02-12T00:37:28;103857.34;;;7.94;100.00
58955;BME280;45815;52.334;5.024;2023-02-12T00:39:53;103854.47;;;7.91;100.00
58955;BME280;45815;52.334;5.024;2023-02-12T00:42:19;103856.03;;;7.89;100.00
58955;BME280;45815;52.334;5.024;2023-02-12T00:44:44;103858.66;;;7.89;100.00
58955;BME280;45815;52.334;5.024;2023-02-12T00:47:10;103857.75;;;7.88;100.00
58955;BME280;45815;52.334;5.024;2023-02-12T00:49:35;103855.13;;;7.88;100.00
58955;BME280;45815;52.334;5.024;2023-02-12T00:52:01;103855.81;;;7.86;100.00
58955;BME280;45815;52.334;5.024;2023-02-12T00:54:28;103852.16;;;7.83;100.00
58955;BME280;45815;52.334;5.024;2023-02-12T00:56:53;103857.16;;;7.80;100.00
58955;BME280;45815;52.334;5.024;2023-02-12T00:59:26;103845.66;;;7.78;100.00
58955;BME280;45815;52.334;5.024;2023-02-12T01:01:54;103841.78;;;7.73;100.00
58955;BME280;45815;52.334;5.024;2023-02-12T01:04:20;103855.06;;;7.76;100.00
58955;BME280;45815;52.334;5.024;2023-02-12T01:06:46;103845.44;;;7.75;100.00
58955;BME280;45815;52.334;5.024;2023-02-12T01:09:12;103850.75;;;7.77;100.00
58955;BME280;45815;52.334;5.024;2023-02-12T01:11:37;103853.38;;;7.77;100.00
58955;BME280;45815;52.334;5.024;2023-02-12T01:14:03;103849.63;;;7.73;100.00
58955;BME280;45815;52.334;5.024;2023-02-12T01:16:29;103845.97;;;7.71;100.00
58955;BME280;45815;52.334;5.024;2023-02-12T01:19:01;103849.38;;;7.70;100.00
58955;BME280;45815;52.334;5.024;2023-02-12T01:21:28;103849.38;;;7.70;100.00
58955;BME280;45815;52.334;5.024;2023-02-12T01:23:55;103845.72;;;7.68;100.00
58955;BME280;45815;52.334;5.024;2023-02-12T01:26:21;103854.34;;;7.67;100.00
58955;BME280;45815;52.334;5.024;2023-02-12T01:28:56;103862.09;;;7.66;100.00
58955;BME280;45815;52.334;5.024;2023-02-12T01:31:24;103854.34;;;7.67;100.00
58955;BME280;45815;52.334;5.024;2023-02-12T01:33:52;103852.53;;;7.66;100.00
58955;BME280;45815;52.334;5.024;2023-02-12T01:36:18;103846.03;;;7.61;100.00
58955;BME280;45815;52.334;5.024;2023-02-12T01:38:46;103858.44;;;7.64;100.00
58955;BME280;45815;52.334;5.024;2023-02-12T01:41:16;103849.97;;;7.56;100.00
58955;BME280;45815;52.334;5.024;2023-02-12T01:43:44;103874.78;;;7.61;100.00
58955;BME280;45815;52.334;5.024;2023-02-12T01:46:12;103866.81;;;7.59;100.00
58955;BME280;45815;52.334;5.024;2023-02-12T01:48:41;103867.59;;;7.58;100.00
58955;BME280;45815;52.334;5.024;2023-02-12T01:51:11;103860.69;;;7.59;100.00
58955;BME280;45815;52.334;5.024;2023-02-12T01:53:42;103862.78;;;7.53;100.00
58955;BME280;45815;52.334;5.024;2023-02-12T01:56:10;103866.09;;;7.50;100.00
58955;BME280;45815;52.334;5.024;2023-02-12T01:58:41;103867.88;;;7.51;100.00
58955;BME280;45815;52.334;5.024;2023-02-12T02:01:12;103851.31;;;7.51;100.00
58955;BME280;45815;52.334;5.024;2023-02-12T02:03:41;103853.00;;;7.50;100.00
58955;BME280;45815;52.334;5.024;2023-02-12T02:06:19;103844.31;;;7.39;100.00
58955;BME280;45815;52.334;5.024;2023-02-12T02:08:46;103861.53;;;7.48;100.00
58955;BME280;45815;52.334;5.024;2023-02-12T02:11:12;103862.56;;;7.50;100.00
58955;BME280;45815;52.334;5.024;2023-02-12T02:13:58;103867.78;;;7.50;100.00
58955;BME280;45815;52.334;5.024;2023-02-12T02:16:52;103856.28;;;7.48;100.00
58955;BME280;45815;52.334;5.024;2023-02-12T02:22:23;103865.34;;;7.41;100.00
58955;BME280;45815;52.334;5.024;2023-02-12T02:33:38;103863.03;;;7.34;100.00
58955;BME280;45815;52.334;5.024;2023-02-12T02:36:13;103863.69;;;7.31;100.00
58955;BME280;45815;52.334;5.024;2023-02-12T02:43:44;103852.78;;;7.15;100.00
58955;BME280;45815;52.334;5.024;2023-02-12T02:46:42;103850.75;;;7.01;100.00
58955;BME280;45815;52.334;5.024;2023-02-12T02:49:15;103844.19;;;7.06;100.00
58955;BME280;45815;52.334;5.024;2023-02-12T02:51:45;103849.19;;;7.03;100.00
58955;BME280;45815;52.334;5.024;2023-02-12T02:54:17;103852.31;;;6.98;100.00
58955;BME280;45815;52.334;5.024;2023-02-12T02:56:45;103847.75;;;6.96;100.00
58955;BME280;45815;52.334;5.024;2023-02-12T02:59:20;103844.63;;;6.90;100.00
58955;BME280;45815;52.334;5.024;2023-02-12T03:01:53;103845.69;;;6.92;100.00
58955;BME280;45815;52.334;5.024;2023-02-12T03:04:27;103844.56;;;6.68;100.00
58955;BME280;45815;52.334;5.024;2023-02-12T03:07:10;103841.78;;;6.76;100.00
58955;BME280;45815;52.334;5.024;2023-02-12T03:09:48;103850.13;;;6.83;100.00
58955;BME280;45815;52.334;5.024;2023-02-12T03:12:21;103841.03;;;6.78;100.00
58955;BME280;45815;52.334;5.024;2023-02-12T03:14:53;103839.84;;;6.74;100.00
58955;BME280;45815;52.334;5.024;2023-02-12T03:17:44;103836.59;;;6.66;100.00
58955;BME280;45815;52.334;5.024;2023-02-12T03:20:18;103839.16;;;6.76;100.00
58955;BME280;45815;52.334;5.024;2023-02-12T03:22:51;103849.00;;;6.79;100.00
58955;BME280;45815;52.334;5.024;2023-02-12T03:25:25;103845.34;;;6.77;100.00
58955;BME280;45815;52.334;5.024;2023-02-12T03:28:00;103836.69;;;6.78;100.00
58955;BME280;45815;52.334;5.024;2023-02-12T03:30:38;103835.66;;;6.76;100.00
58955;BME280;45815;52.334;5.024;2023-02-12T03:36:01;103833.06;;;6.76;100.00
58955;BME280;45815;52.334;5.024;2023-02-12T03:38:33;103841.94;;;6.58;100.00
58955;BME280;45815;52.334;5.024;2023-02-12T03:41:08;103843.00;;;6.70;100.00
58955;BME280;45815;52.334;5.024;2023-02-12T03:49:45;103849.66;;;6.66;100.00
58955;BME280;45815;52.334;5.024;2023-02-12T03:52:13;103859.72;;;6.72;100.00
58955;BME280;45815;52.334;5.024;2023-02-12T03:54:38;103847.94;;;6.67;100.00
58955;BME280;45815;52.334;5.024;2023-02-12T03:57:08;103854.59;;;6.73;100.00
58955;BME280;45815;52.334;5.024;2023-02-12T03:59:35;103863.31;;;6.74;100.00
58955;BME280;45815;52.334;5.024;2023-02-12T04:02:02;103857.34;;;6.75;100.00
58955;BME280;45815;52.334;5.024;2023-02-12T04:04:28;103854.50;;;6.72;100.00
58955;BME280;45815;52.334;5.024;2023-02-12T04:06:53;103858.38;;;6.77;100.00
58955;BME280;45815;52.334;5.024;2023-02-12T04:09:21;103860.19;;;6.78;100.00
58955;BME280;45815;52.334;5.024;2023-02-12T04:11:53;103864.66;;;6.79;100.00
58955;BME280;45815;52.334;5.024;2023-02-12T04:16:59;103874.28;;;6.80;100.00
58955;BME280;45815;52.334;5.024;2023-02-12T04:19:42;103871.94;;;6.83;100.00
58955;BME280;45815;52.334;5.024;2023-02-12T04:22:31;103871.25;;;6.86;100.00
58955;BME280;45815;52.334;5.024;2023-02-12T04:25:10;103873.50;;;6.91;100.00
58955;BME280;45815;52.334;5.024;2023-02-12T04:27:55;103868.78;;;6.87;100.00
58955;BME280;45815;52.334;5.024;2023-02-12T04:30:42;103868.78;;;6.87;100.00
58955;BME280;45815;52.334;5.024;2023-02-12T04:33:13;103880.53;;;6.92;100.00
58955;BME280;45815;52.334;5.024;2023-02-12T04:36:05;103873.25;;;6.78;100.00
58955;BME280;45815;52.334;5.024;2023-02-12T04:38:44;103888.34;;;6.92;100.00
58955;BME280;45815;52.334;5.024;2023-02-12T04:41:11;103887.69;;;6.95;100.00
58955;BME280;45815;52.334;5.024;2023-02-12T04:43:37;103884.97;;;6.93;100.00
58955;BME280;45815;52.334;5.024;2023-02-12T04:46:04;103892.25;;;6.97;100.00
58955;BME280;45815;52.334;5.024;2023-02-12T04:48:30;103901.13;;;7.00;100.00
58955;BME280;45815;52.334;5.024;2023-02-12T04:50:55;103904.78;;;7.02;100.00
58955;BME280;45815;52.334;5.024;2023-02-12T04:53:21;103904.78;;;7.02;100.00
58955;BME280;45815;52.334;5.024;2023-02-12T04:55:46;103910.28;;;7.05;100.00
58955;BME280;45815;52.334;5.024;2023-02-12T04:58:13;103898.25;;;7.07;100.00
58955;BME280;45815;52.334;5.024;2023-02-12T05:00:39;103902.69;;;7.08;100.00
58955;BME280;45815;52.334;5.024;2023-02-12T05:03:04;103898.53;;;7.10;100.00
58955;BME280;45815;52.334;5.024;2023-02-12T05:05:30;103890.53;;;7.08;100.00
58955;BME280;45815;52.334;5.024;2023-02-12T05:07:55;103895.09;;;7.11;100.00
58955;BME280;45815;52.334;5.024;2023-02-12T05:10:21;103891.72;;;7.12;100.00
58955;BME280;45815;52.334;5.024;2023-02-12T05:12:46;103899.66;;;7.13;100.00
58955;BME280;45815;52.334;5.024;2023-02-12T05:15:11;103889.34;;;7.15;100.00
58955;BME280;45815;52.334;5.024;2023-02-12T05:17:37;103895.47;;;7.15;100.00
58955;BME280;45815;52.334;5.024;2023-02-12T05:20:03;103895.47;;;7.15;100.00
58955;BME280;45815;52.334;5.024;2023-02-12T05:22:29;103893.00;;;7.17;100.00
58955;BME280;45815;52.334;5.024;2023-02-12T05:24:54;103893.78;;;7.16;100.00
58955;BME280;45815;52.334;5.024;2023-02-12T05:27:19;103894.72;;;7.16;100.00
58955;BME280;45815;52.334;5.024;2023-02-12T05:29:45;103893.91;;;7.17;100.00
58955;BME280;45815;52.334;5.024;2023-02-12T05:34:15;103902.41;;;7.15;100.00
58955;BME280;45815;52.334;5.024;2023-02-12T05:36:41;103894.72;;;7.16;100.00
58955;BME280;45815;52.334;5.024;2023-02-12T05:39:06;103893.78;;;7.16;100.00
58955;BME280;45815;52.334;5.024;2023-02-12T05:41:32;103883.75;;;7.10;100.00
58955;BME280;45815;52.334;5.024;2023-02-12T05:44:03;103887.66;;;7.15;100.00
58955;BME280;45815;52.334;5.024;2023-02-12T05:46:29;103899.00;;;7.16;100.00
58955;BME280;45815;52.334;5.024;2023-02-12T05:48:55;103902.66;;;7.18;100.00
58955;BME280;45815;52.334;5.024;2023-02-12T05:51:23;103901.63;;;7.16;100.00
58955;BME280;45815;52.334;5.024;2023-02-12T05:53:50;103902.28;;;7.13;100.00
58955;BME280;45815;52.334;5.024;2023-02-12T05:56:21;103900.31;;;7.11;100.00
58955;BME280;45815;52.334;5.024;2023-02-12T05:58:52;103901.13;;;7.10;100.00
58955;BME280;45815;52.334;5.024;2023-02-12T06:01:28;103903.59;;;7.08;100.00
58955;BME280;45815;52.334;5.024;2023-02-12T06:03:54;103901.38;;;7.13;100.00
58955;BME280;45815;52.334;5.024;2023-02-12T06:06:20;103890.41;;;7.07;100.00
58955;BME280;45815;52.334;5.024;2023-02-12T06:08:47;103905.16;;;7.16;100.00
58955;BME280;45815;52.334;5.024;2023-02-12T06:11:14;103906.97;;;7.17;100.00
58955;BME280;45815;52.334;5.024;2023-02-12T06:13:40;103910.63;;;7.19;100.00
58955;BME280;45815;52.334;5.024;2023-02-12T06:16:06;103901.63;;;7.16;100.00
58955;BME280;45815;52.334;5.024;2023-02-12T06:18:34;103901.22;;;7.22;100.00
58955;BME280;45815;52.334;5.024;2023-02-12T06:21:02;103904.75;;;7.22;100.00
58955;BME280;45815;52.334;5.024;2023-02-12T06:23:28;103898.47;;;7.20;100.00
58955;BME280;45815;52.334;5.024;2023-02-12T06:25:55;103916.34;;;7.26;100.00
58955;BME280;45815;52.334;5.024;2023-02-12T06:28:21;103905.88;;;7.26;100.00
58955;BME280;45815;52.334;5.024;2023-02-12T06:30:47;103900.41;;;7.23;100.00
58955;BME280;45815;52.334;5.024;2023-02-12T06:33:12;103900.66;;;7.26;100.00
58955;BME280;45815;52.334;5.024;2023-02-12T06:35:38;103902.50;;;7.27;100.00
58955;BME280;45815;52.334;5.024;2023-02-12T06:38:03;103901.84;;;7.29;100.00
58955;BME280;45815;52.334;5.024;2023-02-12T06:40:29;103894.13;;;7.31;100.00
58955;BME280;45815;52.334;5.024;2023-02-12T06:42:55;103906.41;;;7.32;100.00
58955;BME280;45815;52.334;5.024;2023-02-12T06:45:20;103897.78;;;7.33;100.00
58955;BME280;45815;52.334;5.024;2023-02-12T06:47:46;103909.16;;;7.33;100.00
58955;BME280;45815;52.334;5.024;2023-02-12T06:50:11;103885.41;;;7.20;100.00
58955;BME280;45815;52.334;5.024;2023-02-12T06:52:37;103909.16;;;7.33;100.00
58955;BME280;45815;52.334;5.024;2023-02-12T06:55:02;103905.06;;;7.37;100.00
58955;BME280;45815;52.334;5.024;2023-02-12T06:57:28;103908.84;;;7.40;100.00
58955;BME280;45815;52.334;5.024;2023-02-12T06:59:54;103908.34;;;7.45;100.00
58955;BME280;45815;52.334;5.024;2023-02-12T07:02:20;103911.94;;;7.47;100.00
58955;BME280;45815;52.334;5.024;2023-02-12T07:04:45;103907.75;;;7.49;100.00
58955;BME280;45815;52.334;5.024;2023-02-12T07:07:10;103905.41;;;7.52;100.00
58955;BME280;45815;52.334;5.024;2023-02-12T07:09:36;103915.75;;;7.50;100.00
58955;BME280;45815;52.334;5.024;2023-02-12T07:12:01;103917.44;;;7.50;100.00
58955;BME280;45815;52.334;5.024;2023-02-12T07:14:27;103908.06;;;7.42;100.00
58955;BME280;45815;52.334;5.024;2023-02-12T07:16:56;103922.69;;;7.50;100.00
58955;BME280;45815;52.334;5.024;2023-02-12T07:19:21;103909.22;;;7.45;100.00
58955;BME280;45815;52.334;5.024;2023-02-12T07:21:47;103918.72;;;7.55;100.00
58955;BME280;45815;52.334;5.024;2023-02-12T07:24:13;103924.09;;;7.56;100.00
58955;BME280;45815;52.334;5.024;2023-02-12T07:26:40;103915.38;;;7.46;100.00
58955;BME280;45815;52.334;5.024;2023-02-12T07:29:07;103907.81;;;7.38;100.00
58955;BME280;45815;52.334;5.024;2023-02-12T07:31:32;103924.25;;;7.48;100.00
58955;BME280;45815;52.334;5.024;2023-02-12T07:33:59;103933.66;;;7.46;100.00
58955;BME280;45815;52.334;5.024;2023-02-12T07:36:26;103939.94;;;7.48;100.00
58955;BME280;45815;52.334;5.024;2023-02-12T07:38:53;103937.31;;;7.48;100.00
58955;BME280;45815;52.334;5.024;2023-02-12T07:41:27;103953.75;;;7.47;100.00
58955;BME280;45815;52.334;5.024;2023-02-12T07:44:01;103949.47;;;7.47;100.00
58955;BME280;45815;52.334;5.024;2023-02-12T07:46:31;103953.25;;;7.51;100.00
58955;BME280;45815;52.334;5.024;2023-02-12T07:48:58;103950.53;;;7.49;100.00
58955;BME280;45815;52.334;5.024;2023-02-12T07:51:25;103960.41;;;7.53;100.00
58955;BME280;45815;52.334;5.024;2023-02-12T07:53:51;103961.34;;;7.54;100.00
58955;BME280;45815;52.334;5.024;2023-02-12T07:56:19;103962.94;;;7.52;100.00
58955;BME280;45815;52.334;5.024;2023-02-12T07:58:47;103946.72;;;7.46;100.00
58955;BME280;45815;52.334;5.024;2023-02-12T08:03:43;103958.84;;;7.55;100.00
58955;BME280;45815;52.334;5.024;2023-02-12T08:06:17;103960.56;;;7.55;100.00
58955;BME280;45815;52.334;5.024;2023-02-12T08:08:45;103954.78;;;7.59;100.00
58955;BME280;45815;52.334;5.024;2023-02-12T08:11:11;103946.44;;;7.53;100.00
58955;BME280;45815;52.334;5.024;2023-02-12T08:13:38;103943.16;;;7.55;100.00
58955;BME280;45815;52.334;5.024;2023-02-12T08:16:09;103968.34;;;7.65;100.00
58955;BME280;45815;52.334;5.024;2023-02-12T08:18:35;103959.72;;;7.66;100.00
58955;BME280;45815;52.334;5.024;2023-02-12T08:21:12;103966.00;;;7.68;100.00
58955;BME280;45815;52.334;5.024;2023-02-12T08:23:38;103963.47;;;7.80;100.00
58955;BME280;45815;52.334;5.024;2023-02-12T08:26:15;103968.25;;;7.86;100.00
58955;BME280;45815;52.334;5.024;2023-02-12T08:28:43;103952.69;;;7.87;100.00
58955;BME280;45815;52.334;5.024;2023-02-12T08:31:19;103961.38;;;7.98;100.00
58955;BME280;45815;52.334;5.024;2023-02-12T08:33:45;103962.56;;;8.01;100.00
58955;BME280;45815;52.334;5.024;2023-02-12T08:36:14;103965.31;;;8.03;100.00
58955;BME280;45815;52.334;5.024;2023-02-12T08:38:40;103971.31;;;8.02;100.00
58955;BME280;45815;52.334;5.024;2023-02-12T08:41:17;103966.88;;;8.01;100.00
58955;BME280;45815;52.334;5.024;2023-02-12T08:43:43;103968.94;;;8.05;100.00
58955;BME280;45815;52.334;5.024;2023-02-12T08:46:14;103959.56;;;7.97;100.00
58955;BME280;45815;52.334;5.024;2023-02-12T08:48:41;103981.69;;;8.12;100.00
58955;BME280;45815;52.334;5.024;2023-02-12T08:51:15;103986.00;;;8.22;100.00
58955;BME280;45815;52.334;5.024;2023-02-12T08:53:42;103987.25;;;8.27;100.00
58955;BME280;45815;52.334;5.024;2023-02-12T08:56:09;103989.97;;;8.29;100.00
58955;BME280;45815;52.334;5.024;2023-02-12T08:58:36;103980.81;;;8.34;100.00
58955;BME280;45815;52.334;5.024;2023-02-12T09:01:03;103985.47;;;8.38;100.00
58955;BME280;45815;52.334;5.024;2023-02-12T09:03:29;103981.66;;;8.44;100.00
58955;BME280;45815;52.334;5.024;2023-02-12T09:05:54;103984.53;;;8.48;100.00
58955;BME280;45815;52.334;5.024;2023-02-12T09:08:20;103985.69;;;8.51;100.00
58955;BME280;45815;52.334;5.024;2023-02-12T09:10:45;103984.66;;;8.49;100.00
58955;BME280;45815;52.334;5.024;2023-02-12T09:13:12;103983.88;;;8.50;100.00
58955;BME280;45815;52.334;5.024;2023-02-12T09:15:42;103989.34;;;8.53;100.00
58955;BME280;45815;52.334;5.024;2023-02-12T09:18:08;103990.25;;;8.54;100.00
58955;BME280;45815;52.334;5.024;2023-02-12T09:20:37;103984.66;;;8.49;100.00
58955;BME280;45815;52.334;5.024;2023-02-12T09:23:04;103986.72;;;8.53;100.00
58955;BME280;45815;52.334;5.024;2023-02-12T09:25:30;103965.53;;;8.50;100.00
58955;BME280;45815;52.334;5.024;2023-02-12T09:27:59;103990.97;;;8.63;100.00
58955;BME280;45815;52.334;5.024;2023-02-12T09:30:25;103991.31;;;8.68;100.00
58955;BME280;45815;52.334;5.024;2023-02-12T09:32:50;103993.47;;;8.73;100.00
58955;BME280;45815;52.334;5.024;2023-02-12T09:35:15;103985.34;;;8.80;100.00
58955;BME280;45815;52.334;5.024;2023-02-12T09:37:42;103989.31;;;8.87;100.00
58955;BME280;45815;52.334;5.024;2023-02-12T09:40:17;103992.19;;;8.90;100.00
58955;BME280;45815;52.334;5.024;2023-02-12T09:45:40;103993.66;;;8.98;100.00
58955;BME280;45815;52.334;5.024;2023-02-12T09:50:48;103991.84;;;8.97;100.00
58955;BME280;45815;52.334;5.024;2023-02-12T09:53:18;103984.00;;;8.97;100.00
58955;BME280;45815;52.334;5.024;2023-02-12T09:55:45;103984.22;;;9.00;100.00
58955;BME280;45815;52.334;5.024;2023-02-12T09:58:30;103988.44;;;8.98;100.00
58955;BME280;45815;52.334;5.024;2023-02-12T10:00:57;103989.94;;;9.06;100.00
58955;BME280;45815;52.334;5.024;2023-02-12T10:03:23;103990.97;;;9.08;100.00
58955;BME280;45815;52.334;5.024;2023-02-12T10:05:54;103989.47;;;9.12;100.00
58955;BME280;45815;52.334;5.024;2023-02-12T10:28:01;103989.81;;;9.17;100.00
58955;BME280;45815;52.334;5.024;2023-02-12T10:33:38;103998.50;;;9.16;100.00
58955;BME280;45815;52.334;5.024;2023-02-12T10:38:46;103995.75;;;9.26;100.00
58955;BME280;45815;52.334;5.024;2023-02-12T10:41:14;103999.19;;;9.25;100.00
58955;BME280;45815;52.334;5.024;2023-02-12T10:43:40;103992.09;;;9.24;100.00
58955;BME280;45815;52.334;5.024;2023-02-12T10:46:15;103997.13;;;9.21;100.00
58955;BME280;45815;52.334;5.024;2023-02-12T10:48:43;103999.53;;;9.18;100.00
58955;BME280;45815;52.334;5.024;2023-02-12T10:51:39;103996.22;;;9.08;100.00
58955;BME280;45815;52.334;5.024;2023-02-12T10:54:37;103996.97;;;9.07;100.00
58955;BME280;45815;52.334;5.024;2023-02-12T10:57:11;103995.28;;;9.08;100.00
58955;BME280;45815;52.334;5.024;2023-02-12T10:59:38;103992.97;;;9.01;100.00
58955;BME280;45815;52.334;5.024;2023-02-12T11:02:26;103994.56;;;8.99;100.00
58955;BME280;45815;52.334;5.024;2023-02-12T11:04:53;103992.06;;;9.00;100.00
58955;BME280;45815;52.334;5.024;2023-02-12T11:07:19;103993.25;;;9.04;100.00
58955;BME280;45815;52.334;5.024;2023-02-12T11:09:47;103990.03;;;9.08;100.00
58955;BME280;45815;52.334;5.024;2023-02-12T11:14:56;103990.16;;;9.09;100.00
58955;BME280;45815;52.334;5.024;2023-02-12T11:17:25;103992.78;;;9.09;100.00
58955;BME280;45815;52.334;5.024;2023-02-12T11:22:54;103982.75;;;9.04;100.00
58955;BME280;45815;52.334;5.024;2023-02-12T11:25:22;103982.06;;;9.06;100.00
58955;BME280;45815;52.334;5.024;2023-02-12T11:30:34;103985.72;;;9.08;100.00
58955;BME280;45815;52.334;5.024;2023-02-12T11:33:26;103977.25;;;9.01;100.00
58955;BME280;45815;52.334;5.024;2023-02-12T11:35:54;103979.44;;;9.06;100.00
58955;BME280;45815;52.334;5.024;2023-02-12T11:38:27;103977.50;;;9.04;100.00
58955;BME280;45815;52.334;5.024;2023-02-12T11:40:56;103976.16;;;9.09;100.00
58955;BME280;45815;52.334;5.024;2023-02-12T11:43:23;103978.09;;;9.12;100.00
58955;BME280;45815;52.334;5.024;2023-02-12T11:45:51;103956.56;;;9.04;100.00
58955;BME280;45815;52.334;5.024;2023-02-12T11:48:33;103965.75;;;9.11;100.00
58955;BME280;45815;52.334;5.024;2023-02-12T11:51:02;103971.59;;;9.18;100.00
58955;BME280;45815;52.334;5.024;2023-02-12T11:53:31;103968.50;;;9.24;100.00
58955;BME280;45815;52.334;5.024;2023-02-12T11:56:03;103968.50;;;9.24;100.00
58955;BME280;45815;52.334;5.024;2023-02-12T11:58:29;103975.81;;;9.28;100.00
58955;BME280;45815;52.334;5.024;2023-02-12T12:01:02;103963.63;;;9.28;100.00
58955;BME280;45815;52.334;5.024;2023-02-12T12:03:48;103965.13;;;9.25;100.00
58955;BME280;45815;52.334;5.024;2023-02-12T12:06:24;103963.84;;;9.32;100.00
58955;BME280;45815;52.334;5.024;2023-02-12T12:11:33;103968.06;;;9.41;100.00
58955;BME280;45815;52.334;5.024;2023-02-12T12:14:08;103965.66;;;9.44;100.00
58955;BME280;45815;52.334;5.024;2023-02-12T12:16:43;103966.91;;;9.49;100.00
58955;BME280;45815;52.334;5.024;2023-02-12T12:22:49;103955.19;;;9.44;100.00
58955;BME280;45815;52.334;5.024;2023-02-12T12:25:39;103957.94;;;9.46;100.00
58955;BME280;45815;52.334;5.024;2023-02-12T12:28:29;103955.19;;;9.44;100.00
58955;BME280;45815;52.334;5.024;2023-02-12T12:33:45;103941.25;;;9.57;100.00
58955;BME280;45815;52.334;5.024;2023-02-12T12:38:49;103937.38;;;9.52;100.00
58955;BME280;45815;52.334;5.024;2023-02-12T12:43:53;103947.44;;;9.58;100.00
58955;BME280;45815;52.334;5.024;2023-02-12T12:49:33;103942.59;;;9.64;100.00
58955;BME280;45815;52.334;5.024;2023-02-12T12:52:11;103938.88;;;9.60;100.00
58955;BME280;45815;52.334;5.024;2023-02-12T12:57:52;103931.91;;;9.61;100.00
58955;BME280;45815;52.334;5.024;2023-02-12T13:06:30;103931.00;;;9.60;100.00
58955;BME280;45815;52.334;5.024;2023-02-12T13:16:59;103912.97;;;9.65;100.00
58955;BME280;45815;52.334;5.024;2023-02-12T13:25:16;103918.44;;;9.68;100.00
58955;BME280;45815;52.334;5.024;2023-02-12T13:27:45;103898.81;;;9.75;100.00
58955;BME280;45815;52.334;5.024;2023-02-12T13:30:26;103906.34;;;9.70;100.00
58955;BME280;45815;52.334;5.024;2023-02-12T13:33:06;103899.25;;;9.69;100.00
58955;BME280;45815;52.334;5.024;2023-02-12T13:35:37;103888.34;;;9.63;100.00
58955;BME280;45815;52.334;5.024;2023-02-12T13:38:06;103894.66;;;9.78;100.00
58955;BME280;45815;52.334;5.024;2023-02-12T13:40:33;103900.75;;;9.77;100.00
58955;BME280;45815;52.334;5.024;2023-02-12T13:51:16;103888.78;;;9.69;100.00
58955;BME280;45815;52.334;5.024;2023-02-12T14:07:05;103883.53;;;9.69;100.00
58955;BME280;45815;52.334;5.024;2023-02-12T14:12:16;103880.00;;;9.68;100.00
58955;BME280;45815;52.334;5.024;2023-02-12T14:14:47;103873.84;;;9.68;100.00
58955;BME280;45815;52.334;5.024;2023-02-12T14:33:22;103866.22;;;9.59;100.00
58955;BME280;45815;52.334;5.024;2023-02-12T14:35:50;103864.63;;;9.61;100.00
58955;BME280;45815;52.334;5.024;2023-02-12T14:46:50;103857.13;;;9.54;100.00
58955;BME280;45815;52.334;5.024;2023-02-12T14:49:43;103868.78;;;9.46;100.00
58955;BME280;45815;52.334;5.024;2023-02-12T14:52:15;103864.78;;;9.51;100.00
58955;BME280;45815;52.334;5.024;2023-02-12T14:54:48;103862.94;;;9.50;100.00
58955;BME280;45815;52.334;5.024;2023-02-12T14:57:39;103862.19;;;9.39;100.00
58955;BME280;45815;52.334;5.024;2023-02-12T15:05:41;103869.22;;;9.40;100.00
58955;BME280;45815;52.334;5.024;2023-02-12T15:14:04;103856.28;;;9.30;100.00
58955;BME280;45815;52.334;5.024;2023-02-12T15:16:34;103859.91;;;9.32;100.00
58955;BME280;45815;52.334;5.024;2023-02-12T15:21:38;103847.53;;;9.18;100.00
58955;BME280;45815;52.334;5.024;2023-02-12T15:24:12;103850.03;;;9.16;100.00
58955;BME280;45815;52.334;5.024;2023-02-12T15:26:44;103837.38;;;8.99;100.00
58955;BME280;45815;52.334;5.024;2023-02-12T15:29:26;103849.34;;;9.07;100.00
58955;BME280;45815;52.334;5.024;2023-02-12T15:32:01;103850.81;;;9.03;100.00
58955;BME280;45815;52.334;5.024;2023-02-12T15:34:30;103850.13;;;9.06;100.00
58955;BME280;45815;52.334;5.024;2023-02-12T15:37:00;103854.72;;;9.08;100.00
58955;BME280;45815;52.334;5.024;2023-02-12T15:39:26;103853.91;;;9.09;100.00
58955;BME280;45815;52.334;5.024;2023-02-12T15:41:53;103858.09;;;9.07;100.00
58955;BME280;45815;52.334;5.024;2023-02-12T15:44:20;103864.03;;;9.05;100.00
58955;BME280;45815;52.334;5.024;2023-02-12T15:49:30;103847.41;;;9.04;100.00
58955;BME280;45815;52.334;5.024;2023-02-12T15:51:57;103850.25;;;9.07;100.00
58955;BME280;45815;52.334;5.024;2023-02-12T15:54:24;103848.44;;;9.06;100.00
58955;BME280;45815;52.334;5.024;2023-02-12T15:56:52;103851.16;;;9.08;100.00
58955;BME280;45815;52.334;5.024;2023-02-12T15:59:23;103856.06;;;9.03;100.00
58955;BME280;45815;52.334;5.024;2023-02-12T16:04:18;103847.19;;;9.01;100.00